Time;durP1;ratioP1;P1;durP2;ratioP2;P2;SDS_P1;SDS_P2;PMS_P1;PMS_P2;Temp;Humidity;BMP_temperature;BMP_pressure;BME280_temperature;BME280_humidity;BME280_pressure;Samples;Min_cycle;Max_cycle;Signal;HPM_P1;HPM_P2
2022/09/19 00:00:24;;;;;;;0.30;0.30;;;9.20;99.90;;;;;;5021454;28;20438;-96
2022/09/19 00:02:57;;;;;;;0.70;0.30;;;9.10;99.90;;;;;;5026774;28;20443;-96
2022/09/19 00:05:41;;;;;;;0.30;0.30;;;9.00;99.90;;;;;;5029527;28;20439;-96
2022/09/19 00:08:24;;;;;;;0.83;0.43;;;9.00;99.90;;;;;;5024570;28;20440;-96
2022/09/19 00:10:53;;;;;;;0.50;0.40;;;9.10;99.90;;;;;;5021379;28;20466;-96
2022/09/19 00:13:29;;;;;;;0.50;0.50;;;9.10;99.90;;;;;;5039511;28;20966;-96
2022/09/19 00:15:56;;;;;;;0.80;0.50;;;9.10;99.90;;;;;;5363808;22;20577;-96
2022/09/19 00:18:23;;;;;;;2.30;0.43;;;9.10;99.90;;;;;;5057066;28;20512;-95
2022/09/19 00:20:50;;;;;;;0.30;0.30;;;9.10;99.90;;;;;;5026767;28;20477;-95
2022/09/19 00:26:11;;;;;;;0.80;0.30;;;9.10;99.90;;;;;;5060699;28;21003;-94
2022/09/19 00:28:38;;;;;;;0.50;0.30;;;9.10;99.90;;;;;;5036000;28;20445;-95
2022/09/19 00:31:05;;;;;;;0.40;0.40;;;9.10;99.90;;;;;;5038042;28;20481;-96
2022/09/19 00:33:34;;;;;;;0.37;0.30;;;9.20;99.90;;;;;;5054336;28;20465;-96
2022/09/19 00:36:03;;;;;;;0.30;0.20;;;9.10;99.90;;;;;;5041217;28;20452;-96
2022/09/19 00:38:30;;;;;;;0.43;0.40;;;9.10;99.90;;;;;;5045776;28;20445;-96
2022/09/19 00:41:21;;;;;;;0.47;0.20;;;9.10;99.90;;;;;;5075887;28;20448;-96
2022/09/19 00:44:31;;;;;;;1.00;0.30;;;9.10;99.90;;;;;;5070325;28;20477;-95
2022/09/19 00:47:05;;;;;;;0.40;0.30;;;9.00;99.90;;;;;;5077886;28;20426;-96
2022/09/19 00:49:33;;;;;;;0.40;0.30;;;8.90;99.90;;;;;;5215373;22;20470;-95
2022/09/19 00:52:19;;;;;;;0.40;0.23;;;8.90;99.90;;;;;;5050820;28;20477;-96
2022/09/19 01:06:07;;;;;;;3.20;0.30;;;8.70;99.90;;;;;;5082845;22;20498;-96
2022/09/19 01:09:12;;;;;;;0.20;0.20;;;8.70;99.90;;;;;;5063929;28;20456;-95
2022/09/19 01:11:57;;;;;;;0.30;0.20;;;8.70;99.90;;;;;;5050107;28;20586;-96
2022/09/19 01:14:47;;;;;;;0.23;0.23;;;8.60;99.90;;;;;;5059712;28;20479;-95
2022/09/19 01:17:45;;;;;;;0.20;0.20;;;8.60;99.90;;;;;;5025173;28;20479;-95
2022/09/19 01:20:17;;;;;;;0.20;0.20;;;8.50;99.90;;;;;;5022619;28;20434;-95
2022/09/19 01:22:52;;;;;;;0.20;0.20;;;8.40;99.90;;;;;;5022673;28;20454;-94
2022/09/19 01:25:31;;;;;;;0.23;0.23;;;8.40;99.90;;;;;;5016182;28;20872;-95
2022/09/19 01:28:20;;;;;;;0.20;0.20;;;8.30;99.90;;;;;;5022800;28;20449;-95
2022/09/19 01:31:28;;;;;;;0.40;0.30;;;8.30;99.90;;;;;;5019299;28;20560;-95
2022/09/19 01:34:02;;;;;;;0.23;0.23;;;8.30;99.90;;;;;;5012723;28;20492;-95
2022/09/19 01:36:34;;;;;;;1.70;0.30;;;8.30;99.90;;;;;;5023422;28;20465;-96
2022/09/19 01:39:26;;;;;;;0.70;0.30;;;8.30;99.90;;;;;;5018477;28;20502;-96
2022/09/19 01:42:51;;;;;;;0.40;0.20;;;8.30;99.90;;;;;;5039964;28;21196;-95
2022/09/19 01:45:37;;;;;;;0.30;0.30;;;8.30;99.90;;;;;;5033209;28;20937;-96
2022/09/19 01:48:36;;;;;;;0.30;0.30;;;8.20;99.90;;;;;;4999880;28;20482;-95
2022/09/19 01:51:22;;;;;;;0.70;0.50;;;8.20;99.90;;;;;;5007805;28;20516;-96
2022/09/19 01:53:55;;;;;;;0.30;0.30;;;8.20;99.90;;;;;;5017780;28;20453;-95
2022/09/19 01:57:00;;;;;;;0.73;0.30;;;8.30;99.90;;;;;;5019307;28;20467;-95
2022/09/19 02:00:01;;;;;;;0.30;0.20;;;8.30;99.90;;;;;;4981311;28;20433;-95
2022/09/19 02:03:08;;;;;;;0.40;0.40;;;8.30;99.90;;;;;;5032348;28;20434;-96
2022/09/19 02:06:22;;;;;;;1.13;0.40;;;8.30;99.90;;;;;;5019277;28;20995;-95
2022/09/19 02:09:03;;;;;;;0.40;0.40;;;8.30;99.90;;;;;;5035504;28;20467;-94
2022/09/19 02:11:43;;;;;;;0.70;0.70;;;8.30;99.90;;;;;;5015821;28;20527;-95
2022/09/19 02:14:17;;;;;;;0.57;0.57;;;8.30;99.90;;;;;;5026242;28;20431;-96
2022/09/19 02:17:03;;;;;;;0.93;0.40;;;8.20;99.90;;;;;;5025220;28;20515;-96
2022/09/19 02:20:03;;;;;;;0.70;0.50;;;8.20;99.90;;;;;;5021323;28;20453;-96
2022/09/19 02:22:44;;;;;;;0.83;0.77;;;8.20;99.90;;;;;;5031702;28;20494;-96
2022/09/19 02:25:20;;;;;;;0.80;0.70;;;8.30;99.90;;;;;;5034940;28;20438;-96
2022/09/19 02:28:10;;;;;;;0.60;0.60;;;8.30;99.90;;;;;;5049795;28;20434;-96
2022/09/19 02:30:46;;;;;;;0.67;0.60;;;8.30;99.90;;;;;;5034515;28;20561;-96
2022/09/19 02:33:23;;;;;;;0.67;0.67;;;8.20;99.90;;;;;;5043881;28;20449;-96
2022/09/19 02:36:19;;;;;;;0.93;0.50;;;8.30;99.90;;;;;;5045267;28;20429;-96
2022/09/19 02:39:12;;;;;;;0.60;0.60;;;8.30;99.90;;;;;;5044366;28;20458;-96
2022/09/19 02:42:03;;;;;;;0.97;0.77;;;8.20;99.90;;;;;;5032310;28;20434;-96
2022/09/19 02:45:06;;;;;;;0.50;0.50;;;8.20;99.90;;;;;;5027682;28;21002;-96
2022/09/19 02:47:58;;;;;;;0.80;0.70;;;8.30;99.90;;;;;;5016996;28;20446;-96
2022/09/19 02:50:33;;;;;;;2.20;0.70;;;8.40;99.90;;;;;;5038610;28;20466;-95
2022/09/19 02:53:06;;;;;;;2.00;0.73;;;8.40;99.90;;;;;;5038594;28;20429;-96
2022/09/19 02:55:46;;;;;;;0.43;0.43;;;8.40;99.90;;;;;;5045162;28;20442;-96
2022/09/19 02:58:15;;;;;;;2.30;0.90;;;8.40;99.90;;;;;;5042711;28;20433;-96
2022/09/19 03:00:52;;;;;;;0.77;0.77;;;8.30;99.90;;;;;;5043971;28;20438;-96
2022/09/19 03:07:11;;;;;;;1.73;0.70;;;8.20;99.90;;;;;;5137169;22;20496;-95
2022/09/19 03:10:03;;;;;;;0.70;0.57;;;8.30;99.90;;;;;;5027845;28;20453;-96
2022/09/19 03:13:10;;;;;;;0.50;0.50;;;8.20;99.90;;;;;;5024465;28;20501;-95
2022/09/19 03:15:51;;;;;;;0.70;0.70;;;8.30;99.90;;;;;;5034797;28;20438;-96
2022/09/19 03:18:21;;;;;;;1.67;0.93;;;8.30;99.90;;;;;;5018730;28;20434;-91
2022/09/19 03:20:54;;;;;;;3.90;0.70;;;8.20;99.90;;;;;;5019558;28;20470;-93
2022/09/19 03:23:32;;;;;;;1.03;0.80;;;8.20;99.90;;;;;;5018112;28;20570;-92
2022/09/19 03:26:09;;;;;;;0.60;0.60;;;8.10;99.90;;;;;;5035197;28;20434;-88
2022/09/19 03:28:35;;;;;;;1.63;0.97;;;8.10;99.90;;;;;;5035612;28;20433;-94
2022/09/19 03:31:01;;;;;;;0.40;0.40;;;8.10;99.90;;;;;;5020596;28;20536;-92
2022/09/19 03:33:27;;;;;;;0.63;0.60;;;8.10;99.90;;;;;;5013787;28;20226;-92
2022/09/19 03:35:56;;;;;;;0.93;0.70;;;8.00;99.90;;;;;;5011997;28;20195;-92
2022/09/19 03:38:22;;;;;;;1.80;0.80;;;8.10;99.90;;;;;;5015362;28;20442;-92
2022/09/19 03:40:56;;;;;;;1.27;0.70;;;8.10;99.90;;;;;;5016230;28;20446;-95
2022/09/19 03:43:22;;;;;;;2.57;0.70;;;8.10;99.90;;;;;;5017931;28;20448;-94
2022/09/19 03:45:53;;;;;;;1.70;0.90;;;8.00;99.90;;;;;;5017764;28;20451;-95
2022/09/19 03:48:26;;;;;;;5.30;1.23;;;8.10;99.90;;;;;;5018119;28;20442;-95
2022/09/19 03:50:53;;;;;;;6.33;1.33;;;8.00;99.90;;;;;;5022332;28;20783;-95
2022/09/19 03:53:19;;;;;;;3.80;0.97;;;8.10;99.90;;;;;;5019176;28;20448;-93
2022/09/19 03:55:46;;;;;;;2.90;1.00;;;8.10;99.90;;;;;;5033212;28;20465;-93
2022/09/19 03:58:12;;;;;;;4.47;1.10;;;8.10;99.90;;;;;;5015203;28;20928;-92
2022/09/19 04:00:38;;;;;;;1.20;1.00;;;8.00;99.90;;;;;;5015713;28;20475;-94
2022/09/19 04:03:04;;;;;;;0.93;0.73;;;8.10;99.90;;;;;;5033900;28;20822;-93
2022/09/19 04:05:32;;;;;;;1.67;0.80;;;8.10;99.90;;;;;;5019551;28;20450;-93
2022/09/19 04:07:58;;;;;;;1.90;1.80;;;8.10;99.90;;;;;;5021381;28;20214;-94
2022/09/19 04:10:23;;;;;;;3.40;1.90;;;8.20;99.90;;;;;;5036366;28;20450;-94
2022/09/19 04:12:50;;;;;;;7.10;1.90;;;8.20;99.90;;;;;;5021789;28;20449;-94
2022/09/19 04:15:16;;;;;;;3.00;2.40;;;8.20;99.90;;;;;;5019928;28;20724;-94
2022/09/19 04:17:42;;;;;;;4.77;2.10;;;8.20;99.90;;;;;;5031488;28;20449;-95
2022/09/19 04:20:11;;;;;;;1.60;1.50;;;8.20;99.90;;;;;;5032921;28;20488;-95
2022/09/19 04:22:37;;;;;;;2.00;0.90;;;8.30;99.90;;;;;;5030284;28;20191;-94
2022/09/19 04:25:04;;;;;;;2.43;1.10;;;8.30;99.90;;;;;;5036530;28;20499;-94
2022/09/19 04:27:30;;;;;;;3.00;1.03;;;8.40;99.90;;;;;;5020473;28;20437;-95
2022/09/19 04:29:56;;;;;;;1.53;0.67;;;8.40;99.90;;;;;;5020691;28;21498;-94
2022/09/19 04:32:22;;;;;;;2.57;0.90;;;8.40;99.90;;;;;;5030048;28;20787;-94
2022/09/19 04:34:49;;;;;;;4.90;1.10;;;8.50;99.90;;;;;;5032127;28;20191;-94
2022/09/19 04:37:15;;;;;;;1.87;0.83;;;8.50;99.90;;;;;;5016370;28;20529;-94
2022/09/19 04:39:48;;;;;;;2.77;0.93;;;8.50;99.90;;;;;;5023980;28;20476;-95
2022/09/19 04:42:17;;;;;;;2.93;0.87;;;8.50;99.90;;;;;;5018766;28;20434;-96
2022/09/19 04:44:43;;;;;;;1.90;1.30;;;8.50;99.90;;;;;;5023393;28;21018;-96
2022/09/19 04:47:10;;;;;;;2.70;1.00;;;8.50;99.90;;;;;;5032316;28;20442;-96
2022/09/19 04:49:39;;;;;;;3.03;1.00;;;8.50;99.90;;;;;;5025566;28;20491;-96
2022/09/19 04:52:14;;;;;;;3.10;0.97;;;8.50;99.90;;;;;;5025872;28;20487;-95
2022/09/19 04:54:41;;;;;;;1.37;0.93;;;8.50;99.90;;;;;;5039228;28;20433;-95
2022/09/19 04:57:10;;;;;;;3.90;1.10;;;8.60;99.90;;;;;;5018280;28;20456;-95
2022/09/19 04:59:38;;;;;;;4.20;0.80;;;8.50;99.90;;;;;;5032324;28;20446;-95
2022/09/19 05:02:08;;;;;;;3.00;1.03;;;8.50;99.90;;;;;;5016186;28;20438;-95
2022/09/19 05:04:35;;;;;;;4.13;1.00;;;8.60;99.90;;;;;;5019125;28;20465;-95
2022/09/19 05:07:01;;;;;;;1.47;0.80;;;8.60;99.90;;;;;;5020972;28;20473;-91
2022/09/19 05:09:26;;;;;;;2.57;0.90;;;8.60;99.90;;;;;;5013268;28;20438;-89
2022/09/19 05:11:55;;;;;;;5.57;1.20;;;8.60;99.90;;;;;;5021630;28;20551;-91
2022/09/19 05:14:26;;;;;;;5.43;1.30;;;8.60;99.90;;;;;;5021770;28;20186;-90
2022/09/19 05:17:08;;;;;;;2.83;1.03;;;8.70;99.90;;;;;;5033024;28;20441;-93
2022/09/19 05:19:36;;;;;;;1.90;1.50;;;8.70;99.90;;;;;;4996519;28;20445;-94
2022/09/19 05:22:01;;;;;;;3.13;1.10;;;8.80;99.90;;;;;;5013319;28;20430;-90
2022/09/19 05:24:27;;;;;;;188.53;168.60;;;8.80;99.90;;;;;;5003712;28;20512;-89
2022/09/19 05:26:57;;;;;;;3.23;1.50;;;8.80;99.90;;;;;;5002623;28;20187;-88
2022/09/19 05:29:41;;;;;;;2.70;1.30;;;8.90;99.90;;;;;;5015255;28;20183;-89
2022/09/19 05:32:09;;;;;;;1.57;1.20;;;9.00;99.90;;;;;;5028956;28;20527;-89
2022/09/19 05:34:45;;;;;;;2.80;1.57;;;8.90;99.90;;;;;;5013972;28;20434;-89
2022/09/19 05:37:51;;;;;;;3.90;1.20;;;8.80;99.90;;;;;;5029532;28;20469;-89
2022/09/19 05:40:17;;;;;;;1.93;1.20;;;8.90;99.90;;;;;;5031701;28;20944;-89
2022/09/19 05:42:46;;;;;;;2.63;1.10;;;8.90;99.90;;;;;;5012564;28;20437;-89
2022/09/19 05:45:13;;;;;;;3.17;0.90;;;8.90;99.90;;;;;;5012449;28;20457;-90
2022/09/19 05:47:39;;;;;;;4.43;1.20;;;8.90;99.90;;;;;;5029660;28;20496;-89
2022/09/19 05:50:11;;;;;;;3.40;1.13;;;9.00;99.90;;;;;;5018302;28;20968;-89
2022/09/19 05:55:23;;;;;;;3.97;1.20;;;8.90;99.90;;;;;;5032853;28;20441;-90
2022/09/19 05:57:54;;;;;;;5.30;1.30;;;9.00;99.90;;;;;;5016934;28;21215;-89
2022/09/19 06:00:20;;;;;;;2.83;1.03;;;9.00;99.90;;;;;;5020959;28;20446;-90
2022/09/19 06:03:16;;;;;;;5.03;1.30;;;9.10;99.90;;;;;;5021291;28;20450;-89
2022/09/19 06:11:40;;;;;;;5.00;1.00;;;9.20;99.90;;;;;;5025295;28;20473;-90
2022/09/19 06:14:18;;;;;;;6.87;1.17;;;9.20;99.90;;;;;;5037026;28;20445;-91
2022/09/19 06:17:11;;;;;;;;;;;;;;;;;;;;;
2022/09/19 06:19:37;;;;;;;2.40;1.40;;;9.30;99.90;;;;;;5033925;28;20965;-90
2022/09/19 06:22:37;;;;;;;4.00;1.40;;;9.30;99.90;;;;;;5014733;28;20430;-90
2022/09/19 06:25:04;;;;;;;1.67;1.00;;;9.30;99.90;;;;;;5041883;28;20188;-92
2022/09/19 06:31:07;;;;;;;2.43;1.03;;;9.50;99.90;;;;;;5006134;28;21173;-92
2022/09/19 06:33:35;;;;;;;2.50;1.20;;;9.50;99.90;;;;;;5011779;28;20446;-93
2022/09/19 06:36:38;;;;;;;3.80;1.47;;;9.50;99.90;;;;;;5022266;28;20441;-94
2022/09/19 06:39:07;;;;;;;2.10;1.03;;;9.50;99.90;;;;;;5015826;28;21095;-93
2022/09/19 06:41:34;;;;;;;3.40;1.50;;;9.50;99.90;;;;;;5027087;28;20664;-94
2022/09/19 06:44:01;;;;;;;1.77;1.40;;;9.50;99.90;;;;;;5027104;28;20690;-94
2022/09/19 06:46:27;;;;;;;4.23;1.67;;;9.60;99.90;;;;;;5053284;28;20456;-92
2022/09/19 06:48:52;;;;;;;7.33;1.97;;;9.80;99.90;;;;;;5041224;28;20434;-92
2022/09/19 06:51:18;;;;;;;6.13;1.43;;;9.80;99.90;;;;;;5057356;28;20500;-94
2022/09/19 06:54:02;;;;;;;4.03;1.53;;;9.80;99.90;;;;;;5043900;28;20200;-92
2022/09/19 06:56:46;;;;;;;3.63;1.50;;;9.80;99.90;;;;;;5022546;28;20291;-92
2022/09/19 06:59:14;;;;;;;2.60;1.40;;;9.90;99.90;;;;;;5015246;28;20437;-93
2022/09/19 07:01:40;;;;;;;2.13;1.20;;;9.90;99.90;;;;;;5021863;28;21591;-92
2022/09/19 07:04:06;;;;;;;2.40;1.30;;;10.00;99.90;;;;;;5022288;28;20430;-93
2022/09/19 07:06:38;;;;;;;3.10;1.10;;;10.00;99.90;;;;;;5020484;28;20234;-92
2022/09/19 07:09:12;;;;;;;7.03;1.63;;;10.00;99.90;;;;;;5011532;28;20207;-92
2022/09/19 07:11:54;;;;;;;3.60;1.13;;;10.10;99.90;;;;;;5020018;28;20481;-93
2022/09/19 07:14:40;;;;;;;2.77;1.30;;;10.10;99.90;;;;;;5020994;28;20457;-93
2022/09/19 07:17:15;;;;;;;4.20;1.67;;;10.00;99.90;;;;;;5019186;28;20446;-93
2022/09/19 07:19:41;;;;;;;4.83;1.47;;;10.20;99.90;;;;;;5036521;28;20430;-92
2022/09/19 07:22:08;;;;;;;3.67;1.40;;;10.20;99.90;;;;;;5020224;28;21390;-94
2022/09/19 07:25:21;;;;;;;5.27;1.50;;;10.30;99.90;;;;;;5022337;28;20191;-94
2022/09/19 07:28:04;;;;;;;4.23;1.40;;;10.30;99.90;;;;;;5019510;28;20476;-94
2022/09/19 07:31:21;;;;;;;4.57;1.33;;;10.40;99.90;;;;;;5020490;28;20837;-94
2022/09/19 07:33:59;;;;;;;2.30;1.30;;;10.30;99.90;;;;;;5006928;28;20445;-91
2022/09/19 07:36:36;;;;;;;7.40;1.77;;;10.20;99.90;;;;;;5024107;28;20453;-91
2022/09/19 07:39:02;;;;;;;3.47;1.70;;;10.20;99.90;;;;;;5035359;28;20441;-93
2022/09/19 07:41:30;;;;;;;3.63;2.03;;;10.20;99.90;;;;;;5020442;28;20474;-91
2022/09/19 07:43:58;;;;;;;4.70;1.80;;;10.20;99.90;;;;;;5024064;28;20180;-92
2022/09/19 07:46:32;;;;;;;6.10;1.40;;;10.20;99.90;;;;;;5026750;28;20449;-93
2022/09/19 07:48:57;;;;;;;2.60;1.20;;;10.20;99.90;;;;;;5037832;28;20283;-93
2022/09/19 07:51:23;;;;;;;2.60;1.23;;;10.20;99.90;;;;;;5023403;28;20557;-92
2022/09/19 07:54:08;;;;;;;6.20;1.57;;;10.30;99.90;;;;;;5035223;28;20679;-93
2022/09/19 07:56:34;;;;;;;4.27;1.60;;;10.40;99.90;;;;;;5028063;28;20265;-94
2022/09/19 07:59:10;;;;;;;4.60;1.23;;;10.40;99.90;;;;;;5044591;28;20442;-94
2022/09/19 08:01:45;;;;;;;6.40;1.73;;;10.50;99.90;;;;;;5022955;28;21864;-93
2022/09/19 08:04:29;;;;;;;8.37;1.73;;;10.60;99.90;;;;;;5013478;28;20797;-92
2022/09/19 08:07:03;;;;;;;4.47;2.17;;;10.60;99.90;;;;;;5022460;28;20483;-93
2022/09/19 08:10:07;;;;;;;4.03;1.90;;;10.70;99.90;;;;;;5041462;28;20450;-92
2022/09/19 08:12:52;;;;;;;4.70;2.60;;;10.60;99.90;;;;;;5038087;28;20902;-92
2022/09/19 08:15:48;;;;;;;5.50;2.60;;;10.60;99.90;;;;;;5024344;28;20422;-93
2022/09/19 08:18:29;;;;;;;5.50;2.03;;;10.70;99.90;;;;;;5023241;28;20446;-91
2022/09/19 08:21:09;;;;;;;2.10;1.60;;;10.70;99.90;;;;;;5017975;28;20441;-90
2022/09/19 08:23:50;;;;;;;3.70;1.47;;;10.70;99.90;;;;;;5012367;28;20835;-92
2022/09/19 08:26:45;;;;;;;7.17;1.33;;;10.70;99.90;;;;;;5018356;28;20444;-91
2022/09/19 08:29:27;;;;;;;5.17;1.90;;;10.70;99.90;;;;;;5034962;28;20442;-91
2022/09/19 08:31:53;;;;;;;6.10;1.80;;;10.80;99.90;;;;;;5035070;28;20485;-91
2022/09/19 08:34:18;;;;;;;6.90;2.43;;;10.80;99.90;;;;;;5021702;28;20449;-90
2022/09/19 08:36:44;;;;;;;4.80;2.27;;;10.90;99.90;;;;;;5019601;28;20835;-90
2022/09/19 08:39:11;;;;;;;4.00;1.40;;;10.90;99.90;;;;;;5022510;28;20219;-91
2022/09/19 08:41:54;;;;;;;4.57;1.67;;;10.90;99.90;;;;;;5016697;28;20179;-92
2022/09/19 08:44:46;;;;;;;4.53;2.00;;;11.00;99.90;;;;;;5019072;28;20509;-92
2022/09/19 08:47:21;;;;;;;7.00;1.80;;;10.90;99.90;;;;;;5020499;28;20683;-94
2022/09/19 08:50:26;;;;;;;9.30;1.90;;;10.90;99.90;;;;;;5017256;28;20442;-94
2022/09/19 08:53:27;;;;;;;7.70;1.90;;;11.00;99.90;;;;;;5035100;28;20971;-93
2022/09/19 08:56:00;;;;;;;7.43;1.97;;;11.10;99.90;;;;;;5014186;28;20441;-91
2022/09/19 08:58:30;;;;;;;6.50;2.00;;;11.20;99.90;;;;;;5032525;28;20439;-95
2022/09/19 09:01:02;;;;;;;7.97;2.13;;;11.30;99.90;;;;;;5018214;28;20436;-93
2022/09/19 09:03:47;;;;;;;6.90;2.53;;;11.30;99.90;;;;;;5036012;28;20442;-93
2022/09/19 09:06:42;;;;;;;4.80;1.77;;;11.40;99.90;;;;;;5032960;28;20495;-93
2022/09/19 09:09:37;;;;;;;9.23;2.37;;;11.50;99.90;;;;;;5037297;28;20457;-94
2022/09/19 09:12:35;;;;;;;3.70;1.97;;;11.60;99.90;;;;;;5018714;28;20539;-91
2022/09/19 09:15:09;;;;;;;4.70;1.77;;;11.60;99.90;;;;;;5034909;28;20434;-93
2022/09/19 09:17:54;;;;;;;9.23;1.80;;;11.60;99.90;;;;;;5036419;28;20434;-93
2022/09/19 09:21:07;;;;;;;3.73;1.70;;;11.50;99.90;;;;;;5037143;28;20743;-93
2022/09/19 09:23:46;;;;;;;8.20;2.07;;;11.60;99.90;;;;;;4995751;28;20466;-91
2022/09/19 09:26:36;;;;;;;5.70;2.10;;;11.80;99.90;;;;;;5018849;28;20544;-93
2022/09/19 09:29:17;;;;;;;6.60;1.80;;;11.80;99.90;;;;;;5039296;28;20496;-93
2022/09/19 09:32:07;;;;;;;6.43;1.90;;;11.90;99.90;;;;;;5019444;28;20482;-92
2022/09/19 09:34:42;;;;;;;6.03;1.70;;;12.10;99.90;;;;;;5017097;28;20446;-91
2022/09/19 09:37:25;;;;;;;2.73;1.50;;;12.10;99.90;;;;;;5019005;28;20899;-93
2022/09/19 09:40:13;;;;;;;7.27;1.70;;;11.90;99.90;;;;;;5019543;28;20438;-93
2022/09/19 09:43:05;;;;;;;4.60;1.93;;;11.80;99.90;;;;;;5012893;28;21040;-92
2022/09/19 09:45:48;;;;;;;11.07;2.10;;;12.00;99.90;;;;;;5011691;28;20802;-91
2022/09/19 09:48:24;;;;;;;2.10;1.60;;;12.20;99.90;;;;;;4993240;28;20439;-93
2022/09/19 09:51:20;;;;;;;4.67;2.00;;;12.30;99.90;;;;;;4994809;28;20493;-91
2022/09/19 09:56:14;;;;;;;5.60;2.00;;;12.40;99.90;;;;;;5005091;28;20528;-91
2022/09/19 09:56:57;;;;;;;3.37;1.50;;;12.30;99.90;;;;;;5007781;28;20515;-92
2022/09/19 10:05:54;;;;;;;2.57;1.50;;;12.20;99.90;;;;;;5014723;28;20990;-93
2022/09/19 10:09:01;;;;;;;3.37;1.60;;;12.40;99.90;;;;;;4994999;28;20448;-90
2022/09/19 10:11:51;;;;;;;6.00;2.03;;;12.60;99.90;;;;;;4955566;28;20466;-91
2022/09/19 10:14:19;;;;;;;4.20;1.77;;;12.70;99.90;;;;;;5000858;28;20457;-90
2022/09/19 10:16:52;;;;;;;5.27;1.90;;;12.70;99.90;;;;;;5000755;28;20465;-90
2022/09/19 10:19:27;;;;;;;6.87;2.13;;;12.80;99.90;;;;;;5000186;28;20466;-91
2022/09/19 10:21:54;;;;;;;2.87;1.63;;;12.60;99.90;;;;;;4993127;28;20446;-90
2022/09/19 10:24:45;;;;;;;4.47;1.60;;;12.60;99.90;;;;;;5012714;28;20453;-86
2022/09/19 10:27:38;;;;;;;4.20;1.77;;;12.50;99.90;;;;;;4987474;28;20456;-92
2022/09/19 10:30:41;;;;;;;2.77;1.83;;;12.30;99.90;;;;;;4999169;28;20480;-92
2022/09/19 10:33:50;;;;;;;6.50;1.90;;;12.20;99.90;;;;;;5010773;28;20512;-93
2022/09/19 10:36:26;;;;;;;6.30;1.70;;;12.20;99.90;;;;;;4993924;28;21007;-93
2022/09/19 10:38:59;;;;;;;4.00;1.80;;;12.30;99.90;;;;;;4995401;28;20504;-93
2022/09/19 10:41:50;;;;;;;3.37;2.07;;;12.40;99.90;;;;;;4997061;28;20530;-92
2022/09/19 10:44:24;;;;;;;5.33;1.90;;;12.50;99.90;;;;;;5000226;28;20443;-92
2022/09/19 10:47:12;;;;;;;5.53;2.40;;;12.70;99.90;;;;;;5005185;28;20706;-91
2022/09/19 10:49:48;;;;;;;6.23;2.00;;;12.80;99.90;;;;;;5020163;28;21229;-92
2022/09/19 10:53:04;;;;;;;4.73;1.93;;;12.80;99.90;;;;;;5002109;28;21727;-90
2022/09/19 10:55:36;;;;;;;3.23;1.77;;;13.10;99.90;;;;;;5020389;28;20518;-92
2022/09/19 10:58:35;;;;;;;6.20;2.23;;;13.50;99.90;;;;;;5015368;28;20480;-90
2022/09/19 11:01:04;;;;;;;4.60;1.53;;;13.60;99.90;;;;;;5008420;28;20508;-89
2022/09/19 11:03:39;;;;;;;2.90;1.47;;;13.70;99.90;;;;;;5001620;28;20908;-90
2022/09/19 11:06:18;;;;;;;4.60;2.07;;;13.60;99.90;;;;;;5014781;28;20449;-91
2022/09/19 11:08:49;;;;;;;7.13;1.63;;;13.30;99.90;;;;;;4993271;28;20450;-90
2022/09/19 11:11:49;;;;;;;1.90;1.60;;;13.40;99.90;;;;;;5012298;28;20467;-91
2022/09/19 11:14:37;;;;;;;5.60;1.77;;;13.40;99.90;;;;;;5016716;28;21866;-91
2022/09/19 11:17:29;;;;;;;2.97;1.50;;;13.30;99.90;;;;;;5000783;28;20533;-90
2022/09/19 11:20:32;;;;;;;4.07;1.70;;;13.30;99.90;;;;;;5016048;28;20477;-90
2022/09/19 11:23:56;;;;;;;2.77;1.73;;;13.20;99.90;;;;;;5011882;28;20886;-91
2022/09/19 11:26:59;;;;;;;2.30;1.50;;;13.20;99.90;;;;;;4969500;28;20442;-89
2022/09/19 11:30:12;;;;;;;2.53;1.43;;;13.20;99.90;;;;;;5013390;28;20440;-90
2022/09/19 11:32:54;;;;;;;1.93;1.50;;;13.20;99.90;;;;;;4931524;28;20497;-90
2022/09/19 11:35:31;;;;;;;3.23;1.23;;;13.10;99.90;;;;;;5015272;28;20443;-91
2022/09/19 11:38:02;;;;;;;3.40;1.83;;;13.20;99.90;;;;;;5003034;28;20447;-91
2022/09/19 11:41:07;;;;;;;2.63;1.70;;;13.10;99.90;;;;;;4998813;28;20538;-90
2022/09/19 11:44:00;;;;;;;2.30;1.00;;;13.20;99.90;;;;;;4996870;28;20446;-90
2022/09/19 11:47:06;;;;;;;1.60;1.30;;;13.30;99.90;;;;;;4991739;28;20446;-90
2022/09/19 11:50:00;;;;;;;3.17;1.20;;;13.50;99.90;;;;;;4964432;28;20442;-90
2022/09/19 11:53:07;;;;;;;3.10;1.70;;;13.60;99.90;;;;;;5017614;28;20486;-90
2022/09/19 11:56:04;;;;;;;2.80;1.30;;;13.50;99.90;;;;;;4947333;28;20461;-91
2022/09/19 11:58:57;;;;;;;3.00;1.30;;;13.50;99.90;;;;;;4940762;28;21132;-91
2022/09/19 12:02:11;;;;;;;1.20;1.20;;;13.60;99.90;;;;;;5011240;28;20473;-91
2022/09/19 12:05:15;;;;;;;3.27;1.50;;;13.40;99.90;;;;;;5016162;28;20446;-89
2022/09/19 12:07:56;;;;;;;2.30;1.10;;;13.30;99.90;;;;;;4998150;28;20469;-91
2022/09/19 12:10:43;;;;;;;2.40;1.57;;;13.10;99.90;;;;;;4997142;28;20438;-91
2022/09/19 12:13:31;;;;;;;5.40;1.70;;;13.10;99.90;;;;;;4999960;28;20507;-91
2022/09/19 12:16:04;;;;;;;2.27;2.00;;;13.10;99.90;;;;;;4998961;28;21513;-90
2022/09/19 12:18:55;;;;;;;3.50;1.67;;;13.10;99.90;;;;;;4993939;28;20964;-91
2022/09/19 12:21:31;;;;;;;6.60;1.80;;;13.10;99.90;;;;;;5002725;28;20455;-91
2022/09/19 12:27:11;;;;;;;5.07;1.60;;;13.20;99.90;;;;;;5013974;28;20562;-91
2022/09/19 12:29:55;;;;;;;2.23;1.70;;;13.20;99.90;;;;;;5000976;28;20459;-91
2022/09/19 12:32:56;;;;;;;2.03;1.20;;;13.20;99.90;;;;;;5009961;28;20480;-92
2022/09/19 12:35:34;;;;;;;3.33;1.20;;;12.90;99.90;;;;;;4998920;28;20447;-90
2022/09/19 12:38:25;;;;;;;1.30;1.20;;;12.80;99.90;;;;;;4999036;28;20499;-90
2022/09/19 12:41:07;;;;;;;2.73;1.07;;;12.70;99.90;;;;;;5012975;28;20527;-89
2022/09/19 12:44:13;;;;;;;2.00;1.10;;;12.70;99.90;;;;;;5010623;28;20447;-89
2022/09/19 12:46:52;;;;;;;1.10;1.00;;;12.60;99.90;;;;;;5013156;28;20450;-91
2022/09/19 12:49:51;;;;;;;2.67;1.07;;;12.70;99.90;;;;;;5016849;28;20971;-91
2022/09/19 12:52:41;;;;;;;2.80;1.40;;;12.90;99.90;;;;;;4994455;28;20493;-91
2022/09/19 12:55:22;;;;;;;1.80;1.10;;;13.30;99.90;;;;;;4999680;28;20442;-91
2022/09/19 12:58:16;;;;;;;2.87;1.27;;;13.70;99.90;;;;;;5009041;28;21551;-91
2022/09/19 13:00:45;;;;;;;2.70;1.43;;;13.90;99.90;;;;;;5012374;28;20431;-92
2022/09/19 13:03:30;;;;;;;3.83;1.70;;;14.20;99.90;;;;;;4998331;28;20948;-91
2022/09/19 13:06:18;;;;;;;2.40;1.50;;;14.40;99.90;;;;;;5014094;28;20448;-92
2022/09/19 13:09:32;;;;;;;1.10;1.07;;;14.50;99.90;;;;;;4997128;28;20454;-91
2022/09/19 13:12:11;;;;;;;1.20;1.10;;;14.30;99.90;;;;;;5003253;28;20490;-91
2022/09/19 13:14:43;;;;;;;2.77;1.10;;;14.30;99.90;;;;;;5010459;28;20470;-91
2022/09/19 13:25:48;;;;;;;1.90;1.17;;;15.20;99.90;;;;;;5009646;28;20471;-91
2022/09/19 13:28:24;;;;;;;1.50;1.07;;;16.20;99.90;;;;;;4996691;28;20462;-93
2022/09/19 13:31:20;;;;;;;2.50;1.30;;;15.50;99.90;;;;;;5014911;28;20443;-93
2022/09/19 13:33:56;;;;;;;1.40;1.30;;;15.00;99.90;;;;;;4985998;28;20801;-91
2022/09/19 13:36:27;;;;;;;2.80;0.97;;;14.70;99.90;;;;;;5016044;28;20430;-93
2022/09/19 13:39:45;;;;;;;1.20;1.10;;;14.30;99.90;;;;;;5015565;28;20496;-93
2022/09/19 13:42:56;;;;;;;3.63;1.10;;;14.40;99.90;;;;;;5000685;28;20447;-92
2022/09/19 13:45:41;;;;;;;3.40;1.43;;;14.50;99.90;;;;;;4945942;28;20483;-93
2022/09/19 13:48:24;;;;;;;6.13;1.20;;;14.90;99.90;;;;;;4952914;28;20454;-93
2022/09/19 13:51:07;;;;;;;2.67;1.87;;;14.80;99.90;;;;;;4994044;28;20438;-93
2022/09/19 13:53:44;;;;;;;4.30;1.90;;;14.70;99.90;;;;;;4995934;28;20498;-93
2022/09/19 13:56:34;;;;;;;5.60;1.30;;;14.90;99.90;;;;;;4996511;28;20477;-93
2022/09/19 13:59:24;;;;;;;3.77;0.90;;;15.50;99.90;;;;;;4996773;28;21287;-92
2022/09/19 14:02:17;;;;;;;1.30;0.90;;;15.90;99.90;;;;;;4994394;28;20446;-92
2022/09/19 14:04:56;;;;;;;2.60;1.13;;;16.10;99.90;;;;;;5001192;28;20520;-92
2022/09/19 14:07:35;;;;;;;1.97;1.00;;;16.30;99.90;;;;;;4991744;28;22990;-93
2022/09/19 14:10:14;;;;;;;1.83;0.70;;;15.90;99.90;;;;;;5020195;28;20447;-91
2022/09/19 14:13:04;;;;;;;1.43;0.80;;;15.60;99.90;;;;;;5015061;28;20570;-93
2022/09/19 14:15:42;;;;;;;2.77;1.00;;;15.10;99.90;;;;;;5016015;28;20443;-91
2022/09/19 14:18:15;;;;;;;4.50;0.97;;;14.90;99.90;;;;;;5000010;28;20534;-92
2022/09/19 14:21:03;;;;;;;2.43;0.90;;;14.80;99.90;;;;;;5021100;28;20462;-92
2022/09/19 14:23:44;;;;;;;1.87;1.30;;;14.60;99.90;;;;;;5021259;28;21611;-92
2022/09/19 14:26:19;;;;;;;1.67;1.17;;;14.30;99.90;;;;;;5016408;28;20451;-93
2022/09/19 14:29:27;;;;;;;3.67;1.80;;;14.30;99.90;;;;;;5019307;28;20474;-93
2022/09/19 14:32:49;;;;;;;2.20;1.17;;;14.30;99.90;;;;;;5020846;28;20478;-93
2022/09/19 14:35:42;;;;;;;2.00;1.50;;;14.20;99.90;;;;;;5021085;28;20517;-93
2022/09/19 14:38:29;;;;;;;2.43;1.30;;;14.00;99.90;;;;;;5005004;28;20471;-93
2022/09/19 14:41:22;;;;;;;4.60;1.30;;;14.10;99.90;;;;;;5006169;28;20451;-92
2022/09/19 14:44:15;;;;;;;4.00;1.00;;;14.30;99.90;;;;;;4975131;28;20472;-94
2022/09/19 14:47:10;;;;;;;2.77;1.10;;;14.20;99.90;;;;;;5002769;28;20451;-93
2022/09/19 14:50:09;;;;;;;1.63;1.40;;;14.40;99.90;;;;;;5000491;28;20443;-92
2022/09/19 14:53:01;;;;;;;2.33;1.10;;;14.60;99.90;;;;;;4993495;28;20466;-92